sensor_id;sensor_type;location;lat;lon;timestamp;temperature;humidity
9668;DHT22;4872;48.316;10.650;2024-01-10T05:04:18;-4.80;91.90
9668;DHT22;4872;48.316;10.650;2024-01-10T05:06:44;-4.80;91.90
9668;DHT22;4872;48.316;10.650;2024-01-10T05:09:12;-4.80;91.70
9668;DHT22;4872;48.316;10.650;2024-01-10T05:11:40;-4.80;91.90
9668;DHT22;4872;48.316;10.650;2024-01-10T05:14:07;-4.80;91.90
9668;DHT22;4872;48.316;10.650;2024-01-10T05:16:34;-4.80;91.90
9668;DHT22;4872;48.316;10.650;2024-01-10T05:19:01;-4.90;91.60
9668;DHT22;4872;48.316;10.650;2024-01-10T05:21:31;-5.00;91.70
9668;DHT22;4872;48.316;10.650;2024-01-10T05:23:58;-5.10;92.00
9668;DHT22;4872;48.316;10.650;2024-01-10T05:26:25;-5.10;92.30
9668;DHT22;4872;48.316;10.650;2024-01-10T05:28:52;-4.90;92.60
9668;DHT22;4872;48.316;10.650;2024-01-10T05:31:19;-4.90;92.30
9668;DHT22;4872;48.316;10.650;2024-01-10T05:33:45;-4.80;92.30
9668;DHT22;4872;48.316;10.650;2024-01-10T05:36:12;-4.90;92.30
9668;DHT22;4872;48.316;10.650;2024-01-10T05:38:40;-4.90;92.60
9668;DHT22;4872;48.316;10.650;2024-01-10T05:41:07;-4.90;92.70
9668;DHT22;4872;48.316;10.650;2024-01-10T05:43:34;-4.80;92.70
9668;DHT22;4872;48.316;10.650;2024-01-10T05:46:01;-4.80;92.60
9668;DHT22;4872;48.316;10.650;2024-01-10T05:48:29;-4.80;92.90
9668;DHT22;4872;48.316;10.650;2024-01-10T05:50:57;-4.80;93.00
9668;DHT22;4872;48.316;10.650;2024-01-10T05:53:24;-4.80;93.10
9668;DHT22;4872;48.316;10.650;2024-01-10T05:55:52;-4.70;93.00
9668;DHT22;4872;48.316;10.650;2024-01-10T05:58:19;-4.70;92.80
9668;DHT22;4872;48.316;10.650;2024-01-10T06:00:46;-4.70;93.10
9668;DHT22;4872;48.316;10.650;2024-01-10T06:03:13;-4.70;93.00
9668;DHT22;4872;48.316;10.650;2024-01-10T06:05:40;-4.80;93.10
9668;DHT22;4872;48.316;10.650;2024-01-10T06:08:07;-4.70;93.40
9668;DHT22;4872;48.316;10.650;2024-01-10T06:10:34;-4.70;93.40
9668;DHT22;4872;48.316;10.650;2024-01-10T06:13:02;-4.60;93.60
9668;DHT22;4872;48.316;10.650;2024-01-10T06:15:29;-4.50;93.60
9668;DHT22;4872;48.316;10.650;2024-01-10T06:17:56;-4.60;93.70
9668;DHT22;4872;48.316;10.650;2024-01-10T06:20:22;-4.60;93.60
9668;DHT22;4872;48.316;10.650;2024-01-10T06:22:49;-4.60;93.80
9668;DHT22;4872;48.316;10.650;2024-01-10T06:25:16;-4.60;93.80
9668;DHT22;4872;48.316;10.650;2024-01-10T06:27:42;-4.60;93.80
9668;DHT22;4872;48.316;10.650;2024-01-10T06:30:11;-4.50;93.90
9668;DHT22;4872;48.316;10.650;2024-01-10T06:32:38;-4.60;93.80
9668;DHT22;4872;48.316;10.650;2024-01-10T06:35:05;-4.50;94.00
9668;DHT22;4872;48.316;10.650;2024-01-10T06:37:34;-4.40;93.80
9668;DHT22;4872;48.316;10.650;2024-01-10T06:40:00;-4.40;93.70
9668;DHT22;4872;48.316;10.650;2024-01-10T06:42:29;-4.40;93.40
9668;DHT22;4872;48.316;10.650;2024-01-10T06:44:56;-4.40;93.50
9668;DHT22;4872;48.316;10.650;2024-01-10T06:47:24;-4.40;93.40
9668;DHT22;4872;48.316;10.650;2024-01-10T06:49:51;-4.40;93.40
9668;DHT22;4872;48.316;10.650;2024-01-10T06:52:17;-4.50;93.20
9668;DHT22;4872;48.316;10.650;2024-01-10T06:54:44;-4.50;93.20
9668;DHT22;4872;48.316;10.650;2024-01-10T06:57:11;-4.60;93.30
9668;DHT22;4872;48.316;10.650;2024-01-10T06:59:37;-4.60;93.60
9668;DHT22;4872;48.316;10.650;2024-01-10T07:02:04;-4.70;93.60
9668;DHT22;4872;48.316;10.650;2024-01-10T07:04:33;-4.70;93.70
9668;DHT22;4872;48.316;10.650;2024-01-10T07:07:01;-4.70;93.80
9668;DHT22;4872;48.316;10.650;2024-01-10T07:09:28;-4.70;93.80
9668;DHT22;4872;48.316;10.650;2024-01-10T07:11:55;-4.80;93.70
9668;DHT22;4872;48.316;10.650;2024-01-10T07:14:21;-4.80;94.10
9668;DHT22;4872;48.316;10.650;2024-01-10T07:16:48;-4.80;94.30
9668;DHT22;4872;48.316;10.650;2024-01-10T07:19:15;-4.80;94.40
9668;DHT22;4872;48.316;10.650;2024-01-10T07:21:43;-4.70;94.50
9668;DHT22;4872;48.316;10.650;2024-01-10T07:24:10;-4.70;94.50
9668;DHT22;4872;48.316;10.650;2024-01-10T07:26:37;-4.60;94.50
9668;DHT22;4872;48.316;10.650;2024-01-10T07:29:04;-4.60;94.30
9668;DHT22;4872;48.316;10.650;2024-01-10T07:31:33;-4.50;94.40
9668;DHT22;4872;48.316;10.650;2024-01-10T07:34:00;-4.40;94.30
9668;DHT22;4872;48.316;10.650;2024-01-10T07:36:27;-4.40;94.30
9668;DHT22;4872;48.316;10.650;2024-01-10T07:38:56;-4.50;94.00
9668;DHT22;4872;48.316;10.650;2024-01-10T07:41:24;-4.40;94.30
9668;DHT22;4872;48.316;10.650;2024-01-10T07:43:50;-4.30;94.20
9668;DHT22;4872;48.316;10.650;2024-01-10T07:46:17;-4.10;94.10
9668;DHT22;4872;48.316;10.650;2024-01-10T07:48:44;-4.40;94.10
9668;DHT22;4872;48.316;10.650;2024-01-10T07:51:11;-4.30;94.20
9668;DHT22;4872;48.316;10.650;2024-01-10T07:53:38;-4.20;94.20
9668;DHT22;4872;48.316;10.650;2024-01-10T07:56:06;-4.20;94.00
9668;DHT22;4872;48.316;10.650;2024-01-10T07:58:33;-4.20;93.90
9668;DHT22;4872;48.316;10.650;2024-01-10T08:01:14;-4.10;94.20
9668;DHT22;4872;48.316;10.650;2024-01-10T08:03:41;-3.90;94.30
9668;DHT22;4872;48.316;10.650;2024-01-10T08:06:08;-3.90;94.30
9668;DHT22;4872;48.316;10.650;2024-01-10T08:08:35;-3.80;94.10
9668;DHT22;4872;48.316;10.650;2024-01-10T08:11:02;-3.80;93.80
9668;DHT22;4872;48.316;10.650;2024-01-10T08:13:30;-3.70;94.10
9668;DHT22;4872;48.316;10.650;2024-01-10T08:15:57;-3.70;93.70
9668;DHT22;4872;48.316;10.650;2024-01-10T08:18:24;-3.60;93.70
9668;DHT22;4872;48.316;10.650;2024-01-10T08:20:51;-3.50;94.10
9668;DHT22;4872;48.316;10.650;2024-01-10T08:23:18;-3.40;93.70
9668;DHT22;4872;48.316;10.650;2024-01-10T08:25:46;-3.40;93.70
9668;DHT22;4872;48.316;10.650;2024-01-10T08:28:13;-3.30;93.50
9668;DHT22;4872;48.316;10.650;2024-01-10T08:30:42;-3.20;93.60
9668;DHT22;4872;48.316;10.650;2024-01-10T08:33:17;-3.00;93.50
9668;DHT22;4872;48.316;10.650;2024-01-10T08:35:44;-3.00;93.30
9668;DHT22;4872;48.316;10.650;2024-01-10T08:38:11;-2.80;93.10
9668;DHT22;4872;48.316;10.650;2024-01-10T08:40:38;-2.70;92.80
9668;DHT22;4872;48.316;10.650;2024-01-10T08:43:04;-2.70;92.50
9668;DHT22;4872;48.316;10.650;2024-01-10T08:45:31;-2.80;92.60
9668;DHT22;4872;48.316;10.650;2024-01-10T08:47:59;-2.70;92.80
9668;DHT22;4872;48.316;10.650;2024-01-10T08:50:26;-2.60;92.50
9668;DHT22;4872;48.316;10.650;2024-01-10T08:52:53;-2.50;92.30
9668;DHT22;4872;48.316;10.650;2024-01-10T08:55:19;-2.50;92.20
9668;DHT22;4872;48.316;10.650;2024-01-10T08:57:46;-2.40;92.30
9668;DHT22;4872;48.316;10.650;2024-01-10T09:00:15;-2.30;92.10
9668;DHT22;4872;48.316;10.650;2024-01-10T09:02:42;-2.30;91.60
9668;DHT22;4872;48.316;10.650;2024-01-10T09:05:10;-2.30;91.50
9668;DHT22;4872;48.316;10.650;2024-01-10T09:07:36;-2.30;91.70
9668;DHT22;4872;48.316;10.650;2024-01-10T09:10:04;-2.50;91.40
9668;DHT22;4872;48.316;10.650;2024-01-10T09:12:33;-2.60;91.80
9668;DHT22;4872;48.316;10.650;2024-01-10T09:14:59;-2.50;92.10
9668;DHT22;4872;48.316;10.650;2024-01-10T09:17:26;-2.60;92.10
9668;DHT22;4872;48.316;10.650;2024-01-10T09:19:53;-2.60;92.20
9668;DHT22;4872;48.316;10.650;2024-01-10T09:22:21;-2.50;92.50
9668;DHT22;4872;48.316;10.650;2024-01-10T09:24:48;-2.30;92.10
9668;DHT22;4872;48.316;10.650;2024-01-10T09:27:15;-2.20;91.70
9668;DHT22;4872;48.316;10.650;2024-01-10T09:29:42;-2.30;91.30
9668;DHT22;4872;48.316;10.650;2024-01-10T09:32:14;-2.30;91.70
9668;DHT22;4872;48.316;10.650;2024-01-10T09:34:41;-2.30;91.50
9668;DHT22;4872;48.316;10.650;2024-01-10T09:37:08;-2.30;91.40
9668;DHT22;4872;48.316;10.650;2024-01-10T09:39:50;-2.40;91.20
9668;DHT22;4872;48.316;10.650;2024-01-10T09:42:18;-2.40;91.70
9668;DHT22;4872;48.316;10.650;2024-01-10T09:44:46;-2.40;91.80
9668;DHT22;4872;48.316;10.650;2024-01-10T09:47:15;-2.40;92.00
9668;DHT22;4872;48.316;10.650;2024-01-10T09:49:42;-2.40;92.20
9668;DHT22;4872;48.316;10.650;2024-01-10T09:52:10;-2.40;92.30
9668;DHT22;4872;48.316;10.650;2024-01-10T09:54:40;-2.30;92.10
9668;DHT22;4872;48.316;10.650;2024-01-10T09:57:09;-2.20;92.40
9668;DHT22;4872;48.316;10.650;2024-01-10T09:59:36;-2.10;92.40
9668;DHT22;4872;48.316;10.650;2024-01-10T10:02:03;-2.10;92.20
9668;DHT22;4872;48.316;10.650;2024-01-10T10:04:30;-2.10;92.10
9668;DHT22;4872;48.316;10.650;2024-01-10T10:07:09;-2.00;92.40
9668;DHT22;4872;48.316;10.650;2024-01-10T10:09:36;-1.80;92.50
9668;DHT22;4872;48.316;10.650;2024-01-10T10:12:05;-1.60;92.20
9668;DHT22;4872;48.316;10.650;2024-01-10T10:14:34;-1.50;92.00
9668;DHT22;4872;48.316;10.650;2024-01-10T10:17:16;-1.50;91.70
9668;DHT22;4872;48.316;10.650;2024-01-10T10:19:43;-1.40;91.90
9668;DHT22;4872;48.316;10.650;2024-01-10T10:22:10;-1.40;91.80
9668;DHT22;4872;48.316;10.650;2024-01-10T10:24:39;-1.40;91.20
9668;DHT22;4872;48.316;10.650;2024-01-10T10:27:10;-1.40;91.50
9668;DHT22;4872;48.316;10.650;2024-01-10T10:29:41;-1.20;91.40
9668;DHT22;4872;48.316;10.650;2024-01-10T10:32:08;-1.10;91.20
9668;DHT22;4872;48.316;10.650;2024-01-10T10:34:35;-1.00;90.70
9668;DHT22;4872;48.316;10.650;2024-01-10T10:37:02;-0.90;91.10
9668;DHT22;4872;48.316;10.650;2024-01-10T10:39:29;-0.80;91.00
9668;DHT22;4872;48.316;10.650;2024-01-10T10:41:56;-0.70;90.90
9668;DHT22;4872;48.316;10.650;2024-01-10T10:44:24;-0.40;90.50
9668;DHT22;4872;48.316;10.650;2024-01-10T10:46:53;-0.20;90.50
9668;DHT22;4872;48.316;10.650;2024-01-10T10:49:27;0.30;90.60
9668;DHT22;4872;48.316;10.650;2024-01-10T10:51:58;0.50;90.00
9668;DHT22;4872;48.316;10.650;2024-01-10T10:54:28;0.70;88.40
9668;DHT22;4872;48.316;10.650;2024-01-10T10:56:57;0.70;87.80
9668;DHT22;4872;48.316;10.650;2024-01-10T10:59:26;0.80;88.70
9668;DHT22;4872;48.316;10.650;2024-01-10T11:01:55;0.80;87.40
9668;DHT22;4872;48.316;10.650;2024-01-10T11:04:22;1.30;88.60
9668;DHT22;4872;48.316;10.650;2024-01-10T11:06:49;1.80;87.90
9668;DHT22;4872;48.316;10.650;2024-01-10T11:09:18;2.50;87.00
9668;DHT22;4872;48.316;10.650;2024-01-10T11:12:02;3.10;83.80
9668;DHT22;4872;48.316;10.650;2024-01-10T11:14:43;3.10;82.40
9668;DHT22;4872;48.316;10.650;2024-01-10T11:17:39;3.40;80.30
9668;DHT22;4872;48.316;10.650;2024-01-10T11:20:14;3.40;80.00
9668;DHT22;4872;48.316;10.650;2024-01-10T11:22:54;3.80;78.80
9668;DHT22;4872;48.316;10.650;2024-01-10T11:25:23;3.90;78.20
9668;DHT22;4872;48.316;10.650;2024-01-10T11:27:52;4.20;77.90
9668;DHT22;4872;48.316;10.650;2024-01-10T11:30:33;4.40;76.90
9668;DHT22;4872;48.316;10.650;2024-01-10T11:33:08;4.50;76.20
9668;DHT22;4872;48.316;10.650;2024-01-10T11:36:06;4.80;75.40
9668;DHT22;4872;48.316;10.650;2024-01-10T11:38:32;5.70;74.80
9668;DHT22;4872;48.316;10.650;2024-01-10T11:41:00;6.00;72.50
9668;DHT22;4872;48.316;10.650;2024-01-10T11:43:27;6.10;70.70
9668;DHT22;4872;48.316;10.650;2024-01-10T11:45:55;6.10;70.90
9668;DHT22;4872;48.316;10.650;2024-01-10T11:48:45;6.00;70.20
9668;DHT22;4872;48.316;10.650;2024-01-10T11:51:11;6.20;69.70
9668;DHT22;4872;48.316;10.650;2024-01-10T11:53:44;6.10;69.80
9668;DHT22;4872;48.316;10.650;2024-01-10T11:56:13;6.20;68.90
9668;DHT22;4872;48.316;10.650;2024-01-10T11:58:55;6.80;68.40
9668;DHT22;4872;48.316;10.650;2024-01-10T12:01:22;7.60;67.10
9668;DHT22;4872;48.316;10.650;2024-01-10T12:03:52;8.40;65.80
9668;DHT22;4872;48.316;10.650;2024-01-10T12:06:21;9.20;63.00
9668;DHT22;4872;48.316;10.650;2024-01-10T12:08:48;10.00;60.00
9668;DHT22;4872;48.316;10.650;2024-01-10T12:11:16;10.40;58.60
9668;DHT22;4872;48.316;10.650;2024-01-10T12:13:43;11.50;57.10
9668;DHT22;4872;48.316;10.650;2024-01-10T12:16:11;12.40;54.90
9668;DHT22;4872;48.316;10.650;2024-01-10T12:18:38;13.20;53.70
9668;DHT22;4872;48.316;10.650;2024-01-10T12:21:07;14.30;51.70
9668;DHT22;4872;48.316;10.650;2024-01-10T12:23:36;15.10;50.00
9668;DHT22;4872;48.316;10.650;2024-01-10T12:26:04;15.50;48.00
9668;DHT22;4872;48.316;10.650;2024-01-10T12:28:32;15.60;47.50
9668;DHT22;4872;48.316;10.650;2024-01-10T12:30:59;15.50;46.70
9668;DHT22;4872;48.316;10.650;2024-01-10T12:33:27;15.40;46.00
9668;DHT22;4872;48.316;10.650;2024-01-10T12:36:08;15.40;46.00
9668;DHT22;4872;48.316;10.650;2024-01-10T12:38:36;14.70;45.00
9668;DHT22;4872;48.316;10.650;2024-01-10T12:41:04;14.20;45.70
9668;DHT22;4872;48.316;10.650;2024-01-10T12:43:31;14.50;46.00
9668;DHT22;4872;48.316;10.650;2024-01-10T12:49:09;13.70;45.60
9668;DHT22;4872;48.316;10.650;2024-01-10T12:51:37;13.20;46.30
9668;DHT22;4872;48.316;10.650;2024-01-10T12:54:04;12.40;46.70
9668;DHT22;4872;48.316;10.650;2024-01-10T12:56:31;12.50;48.00
9668;DHT22;4872;48.316;10.650;2024-01-10T12:58:58;12.00;48.30
9668;DHT22;4872;48.316;10.650;2024-01-10T13:01:25;11.20;48.10
9668;DHT22;4872;48.316;10.650;2024-01-10T13:03:52;10.80;48.90
9668;DHT22;4872;48.316;10.650;2024-01-10T13:06:19;10.40;49.20
9668;DHT22;4872;48.316;10.650;2024-01-10T13:08:49;9.50;50.60
9668;DHT22;4872;48.316;10.650;2024-01-10T13:11:16;9.00;52.00
9668;DHT22;4872;48.316;10.650;2024-01-10T13:13:42;8.50;52.30
9668;DHT22;4872;48.316;10.650;2024-01-10T13:16:09;7.80;52.80
9668;DHT22;4872;48.316;10.650;2024-01-10T13:18:39;7.30;53.20
9668;DHT22;4872;48.316;10.650;2024-01-10T13:21:06;6.80;54.50
9668;DHT22;4872;48.316;10.650;2024-01-10T13:23:33;6.60;55.30
9668;DHT22;4872;48.316;10.650;2024-01-10T13:26:03;5.70;56.10
9668;DHT22;4872;48.316;10.650;2024-01-10T13:28:30;5.70;56.50
9668;DHT22;4872;48.316;10.650;2024-01-10T13:30:57;5.40;57.10
9668;DHT22;4872;48.316;10.650;2024-01-10T13:33:24;5.10;57.70
9668;DHT22;4872;48.316;10.650;2024-01-10T13:35:52;5.00;58.30
9668;DHT22;4872;48.316;10.650;2024-01-10T13:38:19;4.90;58.10
9668;DHT22;4872;48.316;10.650;2024-01-10T13:40:47;4.80;59.10
9668;DHT22;4872;48.316;10.650;2024-01-10T13:43:15;4.30;60.30
9668;DHT22;4872;48.316;10.650;2024-01-10T13:45:42;4.30;61.40
9668;DHT22;4872;48.316;10.650;2024-01-10T13:48:09;3.90;61.00
9668;DHT22;4872;48.316;10.650;2024-01-10T13:50:36;4.00;62.50
9668;DHT22;4872;48.316;10.650;2024-01-10T13:53:03;4.20;61.70
9668;DHT22;4872;48.316;10.650;2024-01-10T13:55:30;4.20;62.70
9668;DHT22;4872;48.316;10.650;2024-01-10T13:57:57;4.10;62.10
9668;DHT22;4872;48.316;10.650;2024-01-10T14:00:25;4.00;62.40
9668;DHT22;4872;48.316;10.650;2024-01-10T14:02:53;3.90;62.80
9668;DHT22;4872;48.316;10.650;2024-01-10T14:05:25;3.80;64.10
9668;DHT22;4872;48.316;10.650;2024-01-10T14:07:52;3.70;63.20
9668;DHT22;4872;48.316;10.650;2024-01-10T14:10:19;3.60;63.30
9668;DHT22;4872;48.316;10.650;2024-01-10T14:12:45;3.50;64.70
9668;DHT22;4872;48.316;10.650;2024-01-10T14:15:12;3.50;65.10
9668;DHT22;4872;48.316;10.650;2024-01-10T14:17:41;3.30;64.40
9668;DHT22;4872;48.316;10.650;2024-01-10T14:20:08;3.20;64.60
9668;DHT22;4872;48.316;10.650;2024-01-10T14:22:35;3.10;65.20
9668;DHT22;4872;48.316;10.650;2024-01-10T14:25:02;3.20;65.70
9668;DHT22;4872;48.316;10.650;2024-01-10T14:27:31;3.20;65.60
9668;DHT22;4872;48.316;10.650;2024-01-10T14:29:57;3.10;65.30
9668;DHT22;4872;48.316;10.650;2024-01-10T14:32:25;3.10;65.70
9668;DHT22;4872;48.316;10.650;2024-01-10T14:34:53;2.90;66.10
9668;DHT22;4872;48.316;10.650;2024-01-10T14:37:20;3.00;66.60
9668;DHT22;4872;48.316;10.650;2024-01-10T14:39:47;2.80;66.20
9668;DHT22;4872;48.316;10.650;2024-01-10T14:42:14;2.90;66.60
9668;DHT22;4872;48.316;10.650;2024-01-10T14:44:40;2.90;66.80
9668;DHT22;4872;48.316;10.650;2024-01-10T14:47:07;2.80;67.10
9668;DHT22;4872;48.316;10.650;2024-01-10T14:49:37;2.40;67.40
9668;DHT22;4872;48.316;10.650;2024-01-10T14:52:06;2.30;67.80
9668;DHT22;4872;48.316;10.650;2024-01-10T14:54:32;2.30;67.50
9668;DHT22;4872;48.316;10.650;2024-01-10T14:56:59;2.20;67.70
9668;DHT22;4872;48.316;10.650;2024-01-10T14:59:26;2.10;67.70
9668;DHT22;4872;48.316;10.650;2024-01-10T15:01:55;2.00;68.10
9668;DHT22;4872;48.316;10.650;2024-01-10T15:04:21;1.90;68.00
9668;DHT22;4872;48.316;10.650;2024-01-10T15:06:48;1.80;68.80
9668;DHT22;4872;48.316;10.650;2024-01-10T15:09:16;1.70;69.20
9668;DHT22;4872;48.316;10.650;2024-01-10T15:11:44;1.50;69.70
9668;DHT22;4872;48.316;10.650;2024-01-10T15:14:11;1.30;70.20
9668;DHT22;4872;48.316;10.650;2024-01-10T15:16:38;1.10;70.80
9668;DHT22;4872;48.316;10.650;2024-01-10T15:19:04;1.00;70.90
9668;DHT22;4872;48.316;10.650;2024-01-10T15:21:31;1.00;70.90
9668;DHT22;4872;48.316;10.650;2024-01-10T15:23:58;0.90;70.60
9668;DHT22;4872;48.316;10.650;2024-01-10T15:26:26;0.70;70.80
9668;DHT22;4872;48.316;10.650;2024-01-10T15:28:53;0.60;71.10
9668;DHT22;4872;48.316;10.650;2024-01-10T15:31:20;0.50;71.50
9668;DHT22;4872;48.316;10.650;2024-01-10T15:33:47;0.40;71.60
9668;DHT22;4872;48.316;10.650;2024-01-10T15:36:15;0.30;71.90
9668;DHT22;4872;48.316;10.650;2024-01-10T15:38:42;0.20;71.80
9668;DHT22;4872;48.316;10.650;2024-01-10T15:41:09;0.10;72.20
9668;DHT22;4872;48.316;10.650;2024-01-10T15:43:37;-0.10;72.30
9668;DHT22;4872;48.316;10.650;2024-01-10T15:46:04;-0.30;73.10
9668;DHT22;4872;48.316;10.650;2024-01-10T15:48:32;-0.30;73.50
9668;DHT22;4872;48.316;10.650;2024-01-10T15:50:59;-0.40;73.60
9668;DHT22;4872;48.316;10.650;2024-01-10T15:53:26;-0.50;74.00
9668;DHT22;4872;48.316;10.650;2024-01-10T15:55:53;-0.60;74.30
9668;DHT22;4872;48.316;10.650;2024-01-10T15:58:21;-0.70;74.60
9668;DHT22;4872;48.316;10.650;2024-01-10T16:00:49;-0.80;75.10
9668;DHT22;4872;48.316;10.650;2024-01-10T16:03:16;-0.60;76.00
9668;DHT22;4872;48.316;10.650;2024-01-10T16:05:43;-1.00;76.30
9668;DHT22;4872;48.316;10.650;2024-01-10T16:08:10;-1.10;76.80
9668;DHT22;4872;48.316;10.650;2024-01-10T16:10:37;-1.20;77.50
9668;DHT22;4872;48.316;10.650;2024-01-10T16:13:05;-1.30;77.90
9668;DHT22;4872;48.316;10.650;2024-01-10T16:15:32;-1.40;78.30
9668;DHT22;4872;48.316;10.650;2024-01-10T16:18:00;-1.50;78.80
9668;DHT22;4872;48.316;10.650;2024-01-10T16:20:27;-1.50;79.50
9668;DHT22;4872;48.316;10.650;2024-01-10T16:22:54;-1.60;79.80
9668;DHT22;4872;48.316;10.650;2024-01-10T16:25:21;-1.70;80.30
9668;DHT22;4872;48.316;10.650;2024-01-10T16:27:48;-1.80;80.80
9668;DHT22;4872;48.316;10.650;2024-01-10T16:30:15;-1.80;81.20
9668;DHT22;4872;48.316;10.650;2024-01-10T16:32:42;-1.80;81.70
9668;DHT22;4872;48.316;10.650;2024-01-10T16:35:10;-1.80;82.20
9668;DHT22;4872;48.316;10.650;2024-01-10T16:37:37;-1.80;82.40
9668;DHT22;4872;48.316;10.650;2024-01-10T16:40:04;-1.90;82.50
9668;DHT22;4872;48.316;10.650;2024-01-10T16:42:50;-1.90;82.80
9668;DHT22;4872;48.316;10.650;2024-01-10T16:45:21;-2.00;83.20
9668;DHT22;4872;48.316;10.650;2024-01-10T16:47:48;-2.00;84.20
9668;DHT22;4872;48.316;10.650;2024-01-10T16:50:17;-2.10;84.60
9668;DHT22;4872;48.316;10.650;2024-01-10T16:52:44;-2.20;85.10
9668;DHT22;4872;48.316;10.650;2024-01-10T16:55:11;-2.20;85.60
9668;DHT22;4872;48.316;10.650;2024-01-10T16:57:40;-2.20;86.40
9668;DHT22;4872;48.316;10.650;2024-01-10T17:00:07;-2.30;86.70
9668;DHT22;4872;48.316;10.650;2024-01-10T17:02:34;-2.40;86.70
9668;DHT22;4872;48.316;10.650;2024-01-10T17:05:01;-2.40;87.50
9668;DHT22;4872;48.316;10.650;2024-01-10T17:07:30;-2.40;87.80
9668;DHT22;4872;48.316;10.650;2024-01-10T17:09:57;-2.40;88.40
9668;DHT22;4872;48.316;10.650;2024-01-10T17:12:23;-2.40;88.60
9668;DHT22;4872;48.316;10.650;2024-01-10T17:14:50;-2.50;88.90
9668;DHT22;4872;48.316;10.650;2024-01-10T17:17:17;-2.50;89.50
9668;DHT22;4872;48.316;10.650;2024-01-10T17:19:44;-2.60;89.70
9668;DHT22;4872;48.316;10.650;2024-01-10T17:22:10;-2.60;90.00
9668;DHT22;4872;48.316;10.650;2024-01-10T17:24:40;-2.60;90.30
9668;DHT22;4872;48.316;10.650;2024-01-10T17:27:07;-2.70;90.50
9668;DHT22;4872;48.316;10.650;2024-01-10T17:29:34;-2.70;90.60
9668;DHT22;4872;48.316;10.650;2024-01-10T17:32:01;-2.80;90.70
9668;DHT22;4872;48.316;10.650;2024-01-10T17:34:27;-2.80;91.10
9668;DHT22;4872;48.316;10.650;2024-01-10T17:36:54;-2.90;91.10
9668;DHT22;4872;48.316;10.650;2024-01-10T17:39:21;-2.90;91.20
9668;DHT22;4872;48.316;10.650;2024-01-10T17:41:49;-3.00;91.60
9668;DHT22;4872;48.316;10.650;2024-01-10T17:44:16;-3.00;91.20
9668;DHT22;4872;48.316;10.650;2024-01-10T17:46:44;-3.00;91.30
9668;DHT22;4872;48.316;10.650;2024-01-10T17:49:11;-3.00;91.20
9668;DHT22;4872;48.316;10.650;2024-01-10T17:51:38;-3.00;91.20
9668;DHT22;4872;48.316;10.650;2024-01-10T17:54:04;-3.00;91.20
9668;DHT22;4872;48.316;10.650;2024-01-10T17:56:31;-3.00;91.30
9668;DHT22;4872;48.316;10.650;2024-01-10T17:59:00;-3.00;91.60
9668;DHT22;4872;48.316;10.650;2024-01-10T18:01:28;-3.00;91.70
9668;DHT22;4872;48.316;10.650;2024-01-10T18:03:56;-3.00;91.60
9668;DHT22;4872;48.316;10.650;2024-01-10T18:06:23;-3.10;91.80
9668;DHT22;4872;48.316;10.650;2024-01-10T18:08:50;-3.10;91.90
9668;DHT22;4872;48.316;10.650;2024-01-10T18:11:16;-3.10;91.80
9668;DHT22;4872;48.316;10.650;2024-01-10T18:13:43;-3.20;91.30
9668;DHT22;4872;48.316;10.650;2024-01-10T18:16:11;-3.10;91.50
9668;DHT22;4872;48.316;10.650;2024-01-10T18:18:38;-3.20;91.40
9668;DHT22;4872;48.316;10.650;2024-01-10T18:21:05;-3.30;91.00
9668;DHT22;4872;48.316;10.650;2024-01-10T18:23:31;-3.50;90.60
9668;DHT22;4872;48.316;10.650;2024-01-10T18:25:58;-3.60;90.80
9668;DHT22;4872;48.316;10.650;2024-01-10T18:28:25;-3.60;91.00
9668;DHT22;4872;48.316;10.650;2024-01-10T18:30:52;-3.60;91.10
9668;DHT22;4872;48.316;10.650;2024-01-10T18:33:20;-3.60;91.00
9668;DHT22;4872;48.316;10.650;2024-01-10T18:35:47;-3.50;90.60
9668;DHT22;4872;48.316;10.650;2024-01-10T18:38:16;-3.60;90.40
9668;DHT22;4872;48.316;10.650;2024-01-10T18:40:43;-3.70;90.50
9668;DHT22;4872;48.316;10.650;2024-01-10T18:43:10;-3.80;91.00
9668;DHT22;4872;48.316;10.650;2024-01-10T18:45:37;-3.80;91.20
9668;DHT22;4872;48.316;10.650;2024-01-10T18:48:04;-3.80;91.40
9668;DHT22;4872;48.316;10.650;2024-01-10T18:50:32;-3.80;91.60
9668;DHT22;4872;48.316;10.650;2024-01-10T18:52:59;-3.80;91.70
9668;DHT22;4872;48.316;10.650;2024-01-10T18:55:29;-3.90;92.00
9668;DHT22;4872;48.316;10.650;2024-01-10T18:57:56;-4.00;92.20
9668;DHT22;4872;48.316;10.650;2024-01-10T19:00:23;-4.00;92.30
9668;DHT22;4872;48.316;10.650;2024-01-10T19:02:50;-4.10;92.50
9668;DHT22;4872;48.316;10.650;2024-01-10T19:05:17;-4.10;92.70
9668;DHT22;4872;48.316;10.650;2024-01-10T19:07:46;-4.20;92.70
9668;DHT22;4872;48.316;10.650;2024-01-10T19:10:13;-4.30;92.60
9668;DHT22;4872;48.316;10.650;2024-01-10T19:12:40;-4.20;92.80
9668;DHT22;4872;48.316;10.650;2024-01-10T19:15:07;-4.20;92.60
9668;DHT22;4872;48.316;10.650;2024-01-10T19:17:34;-4.10;92.60
9668;DHT22;4872;48.316;10.650;2024-01-10T19:20:03;-4.20;92.60
9668;DHT22;4872;48.316;10.650;2024-01-10T19:22:30;-4.30;92.70
9668;DHT22;4872;48.316;10.650;2024-01-10T19:24:58;-4.30;93.10
9668;DHT22;4872;48.316;10.650;2024-01-10T19:27:25;-4.20;93.10
9668;DHT22;4872;48.316;10.650;2024-01-10T19:29:52;-4.30;92.90
9668;DHT22;4872;48.316;10.650;2024-01-10T19:32:18;-4.30;93.40
9668;DHT22;4872;48.316;10.650;2024-01-10T19:34:45;-4.30;93.40
9668;DHT22;4872;48.316;10.650;2024-01-10T19:37:12;-4.20;93.80
9668;DHT22;4872;48.316;10.650;2024-01-10T19:39:41;-4.10;93.90
9668;DHT22;4872;48.316;10.650;2024-01-10T19:42:09;-4.10;94.10
9668;DHT22;4872;48.316;10.650;2024-01-10T19:44:36;-4.10;94.30
9668;DHT22;4872;48.316;10.650;2024-01-10T19:47:03;-4.10;94.60
9668;DHT22;4872;48.316;10.650;2024-01-10T19:49:30;-4.10;94.80
9668;DHT22;4872;48.316;10.650;2024-01-10T19:51:58;-4.20;95.00
9668;DHT22;4872;48.316;10.650;2024-01-10T19:54:25;-3.90;95.50
9668;DHT22;4872;48.316;10.650;2024-01-10T19:56:52;-4.20;95.60
9668;DHT22;4872;48.316;10.650;2024-01-10T19:59:20;-4.20;96.00
9668;DHT22;4872;48.316;10.650;2024-01-10T20:01:46;-4.20;96.00
9668;DHT22;4872;48.316;10.650;2024-01-10T20:04:13;-4.20;95.90
9668;DHT22;4872;48.316;10.650;2024-01-10T20:06:40;-4.20;96.10
9668;DHT22;4872;48.316;10.650;2024-01-10T20:09:07;-4.30;96.20
9668;DHT22;4872;48.316;10.650;2024-01-10T20:11:35;-4.40;96.30
9668;DHT22;4872;48.316;10.650;2024-01-10T20:14:02;-4.30;96.90
9668;DHT22;4872;48.316;10.650;2024-01-10T20:16:30;-4.30;96.70
9668;DHT22;4872;48.316;10.650;2024-01-10T20:18:57;-4.20;96.90
9668;DHT22;4872;48.316;10.650;2024-01-10T20:21:24;-4.00;96.90
9668;DHT22;4872;48.316;10.650;2024-01-10T20:23:51;-4.00;96.70
9668;DHT22;4872;48.316;10.650;2024-01-10T20:26:18;-3.90;96.30
9668;DHT22;4872;48.316;10.650;2024-01-10T20:28:45;-4.00;96.20
9668;DHT22;4872;48.316;10.650;2024-01-10T20:31:12;-4.00;96.00
9668;DHT22;4872;48.316;10.650;2024-01-10T20:33:40;-4.00;95.70
9668;DHT22;4872;48.316;10.650;2024-01-10T20:36:07;-4.10;95.40
9668;DHT22;4872;48.316;10.650;2024-01-10T20:38:34;-4.20;95.40
9668;DHT22;4872;48.316;10.650;2024-01-10T20:41:01;-4.20;95.50
9668;DHT22;4872;48.316;10.650;2024-01-10T20:43:28;-4.20;95.50
9668;DHT22;4872;48.316;10.650;2024-01-10T20:45:55;-4.30;95.30
9668;DHT22;4872;48.316;10.650;2024-01-10T20:48:21;-4.30;95.20
9668;DHT22;4872;48.316;10.650;2024-01-10T20:50:49;-4.30;95.40
9668;DHT22;4872;48.316;10.650;2024-01-10T20:53:18;-4.40;95.40
9668;DHT22;4872;48.316;10.650;2024-01-10T20:55:44;-4.40;95.30
9668;DHT22;4872;48.316;10.650;2024-01-10T20:58:11;-4.50;95.20
9668;DHT22;4872;48.316;10.650;2024-01-10T21:00:39;-4.50;95.30